Time;durP1;ratioP1;P1;durP2;ratioP2;P2;SDS_P1;SDS_P2;PMS_P1;PMS_P2;Temp;Humidity;BMP_temperature;BMP_pressure;BME280_temperature;BME280_humidity;BME280_pressure;Samples;Min_cycle;Max_cycle;Signal;HPM_P1;HPM_P2
2022/09/08 01:17:47;;;;;;;13.05;3.53;;;;;;;16.90;100.00;100780.31;10250983;29;20035;-72
2022/09/08 01:35:43;;;;;;;5.35;3.97;;;;;;;17.13;100.00;100762.16;10171603;29;20036;-72
2022/09/08 02:10:59;;;;;;;17.23;5.68;;;;;;;17.39;100.00;100761.56;10217690;28;20130;-72
2022/09/08 02:16:06;;;;;;;6.60;5.05;;;;;;;17.40;100.00;100760.50;10504872;28;20044;-72
2022/09/08 02:33:07;;;;;;;6.20;4.40;;;;;;;17.56;100.00;100763.50;10329860;28;20117;-72
2022/09/08 02:38:23;;;;;;;7.50;3.45;;;;;;;17.55;100.00;100759.94;10333997;28;20053;-72
2022/09/08 02:43:24;;;;;;;9.63;2.53;;;;;;;17.54;100.00;100747.31;10541848;28;20051;-70
2022/09/08 02:48:24;;;;;;;7.97;3.50;;;;;;;17.52;100.00;100748.66;10591152;28;20490;-71
2022/09/08 02:53:25;;;;;;;3.28;2.00;;;;;;;17.48;100.00;100742.00;10589924;28;20192;-70
2022/09/08 02:58:25;;;;;;;2.97;1.98;;;;;;;17.44;100.00;100736.19;10573002;28;20512;-71
2022/09/08 03:03:26;;;;;;;4.05;2.85;;;;;;;17.46;100.00;100738.69;10572281;28;20035;-70
2022/09/08 03:08:26;;;;;;;6.45;3.30;;;;;;;17.44;100.00;100726.06;10571029;28;20036;-70
2022/09/08 03:13:26;;;;;;;3.80;3.03;;;;;;;17.43;100.00;100724.41;10588472;28;20040;-70
2022/09/08 03:18:27;;;;;;;4.57;3.53;;;;;;;17.34;100.00;100723.16;10587547;28;20387;-70
2022/09/08 03:23:28;;;;;;;13.60;3.20;;;;;;;17.26;100.00;100737.25;10589192;28;20455;-70
2022/09/08 03:28:29;;;;;;;6.18;2.80;;;;;;;17.19;100.00;100731.91;10588395;28;20028;-70
2022/09/08 03:33:29;;;;;;;5.22;3.13;;;;;;;17.14;100.00;100720.88;10588386;28;20050;-70
2022/09/08 03:38:30;;;;;;;9.52;4.00;;;;;;;17.09;100.00;100729.00;10588803;28;20052;-70
2022/09/08 03:43:30;;;;;;;4.10;3.35;;;;;;;17.06;100.00;100720.44;10570116;28;20035;-70
2022/09/08 03:48:32;;;;;;;12.82;4.35;;;;;;;17.08;100.00;100729.25;10569401;28;20032;-70
2022/09/08 03:53:32;;;;;;;13.20;4.32;;;;;;;17.07;100.00;100738.50;10570454;28;20035;-70
2022/09/08 03:58:33;;;;;;;7.38;4.22;;;;;;;16.99;100.00;100727.97;10567139;28;20034;-70
2022/09/08 04:03:33;;;;;;;3.92;3.17;;;;;;;16.95;100.00;100724.91;10569847;28;20035;-69
2022/09/08 04:08:34;;;;;;;13.55;4.32;;;;;;;16.93;100.00;100727.88;10587616;28;20108;-69
2022/09/08 04:13:35;;;;;;;8.02;4.43;;;;;;;16.95;100.00;100727.63;10568212;28;20032;-69
2022/09/08 04:18:36;;;;;;;10.65;5.80;;;;;;;16.90;100.00;100728.34;10588007;28;20031;-70
2022/09/08 04:23:36;;;;;;;5.35;4.85;;;;;;;16.91;100.00;100718.22;10568250;28;20516;-69
2022/09/08 04:28:37;;;;;;;6.75;4.97;;;;;;;16.88;100.00;100708.63;10568077;28;20039;-69
2022/09/08 04:33:37;;;;;;;12.23;4.38;;;;;;;16.87;100.00;100709.69;10587060;28;20038;-69
2022/09/08 04:38:39;;;;;;;6.40;4.82;;;;;;;16.87;100.00;100720.63;10477783;28;20499;-70
2022/09/08 04:43:40;;;;;;;15.23;4.68;;;;;;;16.86;100.00;100716.25;10569104;28;20500;-70
2022/09/08 04:48:41;;;;;;;14.07;5.78;;;;;;;16.86;100.00;100713.50;10567302;28;20023;-70
2022/09/08 04:53:41;;;;;;;7.22;5.13;;;;;;;16.84;100.00;100718.38;10568768;28;20063;-70
2022/09/08 04:58:42;;;;;;;9.40;4.93;;;;;;;16.78;100.00;100713.88;10586607;28;20041;-69
2022/09/08 05:03:42;;;;;;;5.40;4.40;;;;;;;16.73;100.00;100716.50;10585714;28;20059;-68
2022/09/08 05:08:48;;;;;;;5.68;5.07;;;;;;;16.72;100.00;100721.16;10584252;28;20035;-66
2022/09/08 05:13:49;;;;;;;8.20;6.25;;;;;;;16.66;100.00;100715.81;10566469;28;20027;-67
2022/09/08 05:18:54;;;;;;;11.90;6.25;;;;;;;16.54;100.00;100718.56;10565030;28;20027;-70
2022/09/08 05:23:55;;;;;;;8.20;6.95;;;;;;;16.47;100.00;100723.34;10566528;28;20473;-70
2022/09/08 05:28:55;;;;;;;13.77;7.10;;;;;;;16.49;100.00;100719.28;10565303;28;20063;-72
2022/09/08 05:33:58;;;;;;;10.57;6.38;;;;;;;16.51;100.00;100719.06;10583597;28;20028;-71
2022/09/08 05:38:59;;;;;;;7.25;5.63;;;;;;;16.45;100.00;100712.66;10564876;28;20493;-70
2022/09/08 05:44:00;;;;;;;11.57;7.13;;;;;;;16.43;100.00;100705.75;10565204;28;20196;-70
2022/09/08 05:49:02;;;;;;;13.93;6.45;;;;;;;16.40;100.00;100707.09;10581890;28;20089;-71
2022/09/08 05:54:02;;;;;;;13.20;5.97;;;;;;;16.39;100.00;100697.22;10584406;28;20412;-70
2022/09/08 05:59:03;;;;;;;5.47;4.97;;;;;;;16.35;100.00;100698.78;10582542;28;20035;-71
2022/09/08 06:04:03;;;;;;;4.70;3.90;;;;;;;16.34;100.00;100697.13;10581390;28;20046;-71
2022/09/08 06:09:06;;;;;;;8.15;5.22;;;;;;;16.38;100.00;100702.94;10564798;28;20390;-71
2022/09/08 06:14:07;;;;;;;10.73;6.07;;;;;;;16.38;100.00;100709.22;10582343;28;20146;-71
2022/09/08 06:19:07;;;;;;;9.02;5.50;;;;;;;16.46;100.00;100708.88;10564472;28;20228;-71
2022/09/08 06:24:10;;;;;;;8.25;7.38;;;;;;;16.49;100.00;100702.88;10564844;28;20383;-71
2022/09/08 06:29:16;;;;;;;9.90;6.60;;;;;;;16.55;100.00;100694.81;10547070;28;20032;-72
2022/09/08 06:34:19;;;;;;;7.50;6.13;;;;;;;16.61;100.00;100707.50;10579922;28;20032;-71
2022/09/08 06:39:32;;;;;;;13.52;7.72;;;;;;;16.67;100.00;100710.09;10582193;28;20073;-73
2022/09/08 06:44:33;;;;;;;10.73;9.35;;;;;;;16.70;100.00;100701.41;10582708;28;20055;-73
2022/09/08 06:49:34;;;;;;;11.38;8.52;;;;;;;16.76;100.00;100705.13;10546582;28;20050;-73
2022/09/08 06:54:44;;;;;;;13.18;9.32;;;;;;;16.85;100.00;100705.56;10582109;28;20031;-73
2022/09/08 07:00:03;;;;;;;12.63;11.30;;;;;;;16.85;100.00;100700.09;10581803;28;20034;-73
2022/09/08 07:05:28;;;;;;;13.93;11.10;;;;;;;16.90;100.00;100709.19;10564118;28;20028;-73
2022/09/08 07:10:56;;;;;;;13.18;11.85;;;;;;;16.97;100.00;100714.53;10581637;28;20031;-73
2022/09/08 07:16:15;;;;;;;13.52;11.38;;;;;;;16.96;100.00;100712.88;10572752;28;20028;-73
2022/09/08 07:21:49;;;;;;;18.40;12.52;;;;;;;16.95;100.00;100719.44;10581417;28;20028;-73
2022/09/08 07:26:58;;;;;;;11.80;10.30;;;;;;;17.04;100.00;100722.59;10573026;28;20031;-74
2022/09/08 07:31:58;;;;;;;11.40;10.05;;;;;;;17.05;100.00;100716.06;10583262;28;20378;-74
2022/09/08 07:37:24;;;;;;;11.88;9.07;;;;;;;17.18;100.00;100721.22;10587197;28;20038;-73
2022/09/08 07:42:25;;;;;;;10.68;7.78;;;;;;;17.20;100.00;100710.88;10588497;28;20086;-72
2022/09/08 07:47:37;;;;;;;8.68;7.80;;;;;;;17.32;100.00;100713.53;10570250;28;20047;-72
2022/09/08 07:53:31;;;;;;;8.50;7.30;;;;;;;17.43;100.00;100718.94;10586820;28;20088;-73
2022/09/08 07:58:45;;;;;;;11.27;9.20;;;;;;;17.34;100.00;100714.94;10542209;28;20442;-73
2022/09/08 08:03:59;;;;;;;10.57;9.35;;;;;;;17.49;100.00;100710.81;10552583;28;20467;-73
2022/09/08 08:09:12;;;;;;;8.20;3.85;;;;;;;17.46;100.00;100716.78;10572142;28;20047;-73
2022/09/08 08:14:26;;;;;;;3.40;2.50;;;;;;;17.43;100.00;100729.88;10570507;28;20031;-73
2022/09/08 08:19:39;;;;;;;3.45;2.92;;;;;;;17.52;100.00;100737.72;10552029;28;20024;-73
2022/09/08 08:25:17;;;;;;;7.55;2.80;;;;;;;17.81;100.00;100728.38;10569075;28;20023;-73
2022/09/08 08:30:21;;;;;;;11.13;4.28;;;;;;;17.86;100.00;100739.38;10586223;28;20035;-72
2022/09/08 08:35:26;;;;;;;5.45;3.90;;;;;;;19.31;100.00;100738.25;10567050;28;20040;-74
2022/09/08 08:40:35;;;;;;;3.75;3.13;;;;;;;20.14;100.00;100735.94;10567574;28;20052;-73
2022/09/08 08:46:12;;;;;;;5.20;3.10;;;;;;;21.41;100.00;100737.59;10568375;28;20050;-74
2022/09/08 08:51:25;;;;;;;5.88;3.30;;;;;;;22.73;100.00;100735.75;10585326;28;20032;-73
2022/09/08 08:56:30;;;;;;;2.35;2.25;;;;;;;23.38;100.00;100741.19;10584707;28;20133;-72
2022/09/08 09:01:33;;;;;;;4.47;2.40;;;;;;;23.67;100.00;100744.00;10566808;28;20450;-74
2022/09/08 09:07:02;;;;;;;2.28;2.08;;;;;;;23.65;100.00;100741.56;10566303;28;20028;-73
2022/09/08 09:12:40;;;;;;;4.45;2.88;;;;;;;23.16;100.00;100745.19;10567932;28;20031;-73
2022/09/08 09:18:05;;;;;;;7.20;3.10;;;;;;;22.45;100.00;100753.78;10584651;28;20081;-70
2022/09/08 09:23:18;;;;;;;3.17;2.88;;;;;;;21.54;100.00;100752.75;10569679;28;20035;-73
2022/09/08 09:28:45;;;;;;;3.22;2.92;;;;;;;22.22;100.00;100741.44;10566634;28;20104;-73
2022/09/08 09:33:57;;;;;;;;;;;;;;;23.12;100.00;100737.78;10552431;28;20126;-71
2022/09/08 09:39:06;;;;;;;6.72;3.38;;;;;;;21.70;100.00;100748.09;10582950;28;20359;-74
2022/09/08 09:44:10;;;;;;;3.58;3.25;;;;;;;20.92;100.00;100751.75;10564622;28;20031;-72
2022/09/08 09:49:30;;;;;;;4.75;3.85;;;;;;;20.28;100.00;100746.47;10583386;28;20028;-72
2022/09/08 09:54:40;;;;;;;7.50;3.85;;;;;;;21.17;100.00;100751.00;10564752;28;20082;-72
2022/09/08 10:00:08;;;;;;;3.88;3.47;;;;;;;23.09;100.00;100750.22;10563716;28;20032;-72
2022/09/08 10:05:30;;;;;;;3.08;2.80;;;;;;;24.47;100.00;100749.09;10582958;28;20034;-72
2022/09/08 10:11:01;;;;;;;3.65;2.47;;;;;;;25.02;93.88;100734.84;10564093;28;20374;-72
2022/09/08 10:16:01;;;;;;;3.78;2.95;;;;;;;25.93;100.00;100745.66;10582595;28;20494;-72
2022/09/08 10:21:26;;;;;;;3.17;2.88;;;;;;;24.83;100.00;100748.69;10582609;28;20055;-72
2022/09/08 10:26:46;;;;;;;3.97;3.13;;;;;;;24.81;100.00;100735.13;10582345;28;20084;-72
2022/09/08 10:32:05;;;;;;;6.88;2.88;;;;;;;25.61;97.57;100725.09;10563530;28;20027;-72
2022/09/08 10:37:14;;;;;;;5.25;3.30;;;;;;;25.05;93.27;100737.03;10582139;28;20518;-72
2022/09/08 10:42:45;;;;;;;6.22;2.92;;;;;;;23.87;100.00;100743.88;10565141;28;20521;-72
2022/09/08 10:48:00;;;;;;;5.60;3.80;;;;;;;24.46;100.00;100739.16;10563905;28;20127;-72
2022/09/08 10:53:09;;;;;;;9.23;3.28;;;;;;;23.28;100.00;100738.50;10564371;28;20027;-72
2022/09/08 10:58:35;;;;;;;8.77;2.90;;;;;;;23.77;91.35;100732.06;10564576;28;20106;-72
2022/09/08 11:04:03;;;;;;;7.70;3.85;;;;;;;24.72;92.17;100741.63;10566974;28;20420;-71
2022/09/08 11:09:22;;;;;;;7.85;3.35;;;;;;;24.09;99.69;100743.41;10588602;28;20055;-72
2022/09/08 11:14:41;;;;;;;12.73;3.83;;;;;;;23.88;98.22;100741.94;10572039;28;20034;-72
2022/09/08 11:19:42;;;;;;;10.73;2.63;;;;;;;24.43;100.00;100739.75;10572072;28;20036;-72
2022/09/08 11:25:13;;;;;;;2.47;2.28;;;;;;;23.88;100.00;100741.94;10587512;28;20123;-72
2022/09/08 11:30:21;;;;;;;4.28;2.90;;;;;;;25.02;100.00;100730.13;10588413;28;20027;-72
2022/09/08 11:35:24;;;;;;;8.40;3.63;;;;;;;25.93;100.00;100735.41;10536601;28;20044;-72
2022/09/08 11:40:36;;;;;;;5.50;3.03;;;;;;;25.94;100.00;100734.28;10570030;28;20047;-71
2022/09/08 11:45:42;;;;;;;8.48;3.22;;;;;;;24.51;100.00;100735.53;10588568;28;20039;-72
2022/09/08 11:50:43;;;;;;;;;;;;;;;26.23;100.00;100724.03;10588206;28;20027;-72
2022/09/08 11:56:17;;;;;;;4.45;2.33;;;;;;;27.30;92.27;100719.03;10569006;28;19912;-71
2022/09/08 12:01:26;;;;;;;2.47;2.13;;;;;;;27.48;92.62;100712.47;10587039;28;20391;-72
2022/09/08 12:07:02;;;;;;;4.30;2.30;;;;;;;27.13;99.88;100719.69;10587067;28;20500;-72
2022/09/08 12:12:10;;;;;;;2.80;2.28;;;;;;;24.44;100.00;100701.81;10585447;28;20096;-72
2022/09/08 12:17:16;;;;;;;3.95;2.50;;;;;;;24.57;100.00;100709.44;10566975;28;20037;-72
2022/09/08 12:22:41;;;;;;;7.15;2.70;;;;;;;24.05;100.00;100708.31;10588076;28;20031;-71
2022/09/08 12:28:18;;;;;;;4.97;2.35;;;;;;;23.87;100.00;100707.94;10586869;28;20114;-72
2022/09/08 12:33:37;;;;;;;10.65;2.67;;;;;;;23.86;100.00;100697.97;10585485;28;20440;-71
2022/09/08 12:38:37;;;;;;;9.07;2.40;;;;;;;23.64;100.00;100692.91;10570092;28;20474;-71
2022/09/08 12:43:41;;;;;;;7.93;2.50;;;;;;;24.08;100.00;100702.19;10586643;28;20038;-71
2022/09/08 12:49:13;;;;;;;2.00;1.55;;;;;;;23.71;100.00;100705.59;10586481;28;20172;-71
2022/09/08 12:54:22;;;;;;;6.50;2.83;;;;;;;23.84;100.00;100700.22;10585396;28;20038;-71
2022/09/08 12:59:48;;;;;;;3.35;2.20;;;;;;;24.09;100.00;100688.06;10585965;28;20032;-71
2022/09/08 13:04:49;;;;;;;8.68;2.80;;;;;;;25.27;97.78;100687.41;10543002;28;20043;-71
2022/09/08 13:10:07;;;;;;;12.32;3.10;;;;;;;26.24;100.00;100693.22;10585167;28;20031;-71
2022/09/08 13:15:17;;;;;;;9.73;2.72;;;;;;;26.57;94.51;100680.03;10551998;28;20031;-71
2022/09/08 13:20:32;;;;;;;7.70;2.70;;;;;;;26.15;80.12;100675.63;10565568;28;20387;-71
2022/09/08 13:25:54;;;;;;;7.35;2.22;;;;;;;24.99;91.40;100677.28;10566283;28;20070;-71
2022/09/08 13:31:01;;;;;;;2.35;1.75;;;;;;;25.18;96.62;100672.59;10568541;28;20072;-71
2022/09/08 13:36:49;;;;;;;4.00;2.10;;;;;;;26.06;93.89;100669.94;10564970;28;20027;-72
2022/09/08 13:42:21;;;;;;;9.98;3.03;;;;;;;25.51;93.56;100689.22;10577951;28;20089;-71
2022/09/08 13:47:59;;;;;;;6.43;2.72;;;;;;;26.00;94.70;100682.28;10584210;28;20043;-71
2022/09/08 13:53:23;;;;;;;2.25;2.05;;;;;;;26.27;90.28;100675.13;10568415;28;20028;-71
2022/09/08 13:58:33;;;;;;;2.45;2.25;;;;;;;26.26;93.52;100676.22;10566642;28;20094;-71
2022/09/08 14:03:54;;;;;;;2.58;1.77;;;;;;;25.22;97.98;100687.47;10563717;28;20028;-71
2022/09/08 14:09:01;;;;;;;3.42;2.28;;;;;;;24.12;100.00;100686.66;10583680;28;20051;-71
2022/09/08 14:14:14;;;;;;;5.83;2.23;;;;;;;24.04;100.00;100688.13;10564049;28;20092;-71
2022/09/08 14:19:40;;;;;;;2.95;1.73;;;;;;;23.77;89.07;100687.84;10581825;28;20272;-71
2022/09/08 14:25:05;;;;;;;4.03;1.37;;;;;;;23.09;100.00;100691.41;10564141;28;20027;-71
2022/09/08 14:30:13;;;;;;;7.03;2.72;;;;;;;22.61;100.00;100683.63;10581046;28;20037;-71
2022/09/08 14:35:29;;;;;;;2.17;1.52;;;;;;;22.42;100.00;100675.16;10581491;28;20467;-71
2022/09/08 14:40:36;;;;;;;15.50;2.80;;;;;;;22.46;100.00;100683.69;10583001;28;20054;-71
2022/09/08 14:46:03;;;;;;;5.32;2.60;;;;;;;22.16;100.00;100679.94;10555664;28;20473;-71
2022/09/08 14:51:21;;;;;;;7.63;2.70;;;;;;;21.98;100.00;100686.81;10581573;28;20118;-71
2022/09/08 14:56:31;;;;;;;7.93;2.03;;;;;;;21.81;100.00;100687.13;10555908;28;20142;-71
2022/09/08 15:01:36;;;;;;;8.48;3.03;;;;;;;22.16;100.00;100681.88;10572996;28;20065;-71
2022/09/08 15:06:45;;;;;;;5.60;2.30;;;;;;;22.64;100.00;100682.22;10587787;28;20493;-71
2022/09/08 15:11:49;;;;;;;2.55;1.38;;;;;;;22.39;100.00;100694.19;10590843;28;20027;-71
2022/09/08 15:16:52;;;;;;;2.28;2.08;;;;;;;22.21;100.00;100684.63;10589114;28;20032;-71
2022/09/08 15:21:53;;;;;;;3.95;2.10;;;;;;;22.02;100.00;100693.47;10546345;28;20115;-71
2022/09/08 15:26:56;;;;;;;4.25;2.35;;;;;;;21.85;100.00;100681.88;10552819;28;20088;-71
2022/09/08 15:31:57;;;;;;;1.88;1.60;;;;;;;21.90;100.00;100681.91;10587886;28;20031;-71
2022/09/08 15:37:28;;;;;;;1.55;1.45;;;;;;;22.09;100.00;100673.03;10587977;28;20031;-71
2022/09/08 15:42:56;;;;;;;3.22;1.85;;;;;;;21.78;100.00;100681.34;10553031;28;20051;-71
2022/09/08 15:48:22;;;;;;;3.85;1.42;;;;;;;21.64;100.00;100685.78;10573682;28;20506;-71
2022/09/08 15:53:38;;;;;;;6.05;1.50;;;;;;;21.52;100.00;100678.63;10569276;28;20035;-71
2022/09/08 15:59:06;;;;;;;4.73;1.80;;;;;;;21.36;100.00;100676.97;10586590;28;20020;-70
2022/09/08 16:04:21;;;;;;;1.92;1.83;;;;;;;21.19;100.00;100688.22;10569178;28;20031;-70
2022/09/08 16:09:22;;;;;;;6.00;1.83;;;;;;;21.05;100.00;100690.66;10551844;28;20158;-70
2022/09/08 16:14:44;;;;;;;2.05;1.58;;;;;;;20.84;100.00;100695.31;10569177;28;20032;-70
2022/09/08 16:20:04;;;;;;;3.63;1.95;;;;;;;20.67;100.00;100697.44;10587026;28;20040;-70
2022/09/08 16:25:07;;;;;;;1.63;1.55;;;;;;;20.45;100.00;100692.09;10587802;28;20042;-70
2022/09/08 16:30:23;;;;;;;2.25;1.55;;;;;;;20.36;100.00;100690.97;10564846;28;20092;-70
2022/09/08 16:35:23;;;;;;;3.47;1.80;;;;;;;20.21;100.00;100692.53;10584452;28;20038;-71
2022/09/08 16:40:26;;;;;;;3.07;2.17;;;;;;;20.15;100.00;100670.78;10568164;28;20056;-71
2022/09/08 16:45:32;;;;;;;1.48;1.42;;;;;;;19.95;100.00;100661.34;10567437;28;20259;-70
2022/09/08 16:50:34;;;;;;;3.28;2.42;;;;;;;19.95;100.00;100672.31;10585360;28;20114;-71
2022/09/08 16:55:56;;;;;;;2.72;2.08;;;;;;;19.93;100.00;100691.00;10567348;28;20039;-69
2022/09/08 17:01:19;;;;;;;7.85;2.55;;;;;;;19.76;100.00;100698.56;10583853;28;20027;-71
2022/09/08 17:06:45;;;;;;;7.32;3.03;;;;;;;19.55;100.00;100703.03;10583831;28;20042;-70
2022/09/08 17:11:59;;;;;;;7.22;2.70;;;;;;;19.51;100.00;100699.16;10568648;28;20122;-70
2022/09/08 17:17:32;;;;;;;5.50;2.17;;;;;;;19.42;100.00;100700.72;10584289;28;20027;-71
2022/09/08 17:22:57;;;;;;;2.20;1.90;;;;;;;19.37;100.00;100678.72;10569239;28;20036;-70
2022/09/08 17:28:00;;;;;;;1.67;1.58;;;;;;;19.39;100.00;100676.53;10584902;28;20045;-70
2022/09/08 17:33:14;;;;;;;1.90;1.42;;;;;;;19.34;100.00;100688.31;10583778;28;20035;-70
2022/09/08 17:38:31;;;;;;;1.52;1.42;;;;;;;19.09;100.00;100677.94;10584240;28;20051;-70
2022/09/08 17:43:43;;;;;;;6.50;2.05;;;;;;;18.99;100.00;100670.44;10586867;28;20036;-71
2022/09/08 17:48:54;;;;;;;2.00;1.80;;;;;;;18.81;100.00;100673.50;10550992;28;20027;-70
2022/09/08 17:54:03;;;;;;;4.97;2.03;;;;;;;18.69;100.00;100676.38;10583494;28;20043;-71
2022/09/08 17:59:12;;;;;;;2.42;1.88;;;;;;;18.55;100.00;100669.63;10566068;28;20148;-71
2022/09/08 18:04:13;;;;;;;3.00;2.00;;;;;;;18.43;100.00;100668.94;10566123;28;20039;-70
2022/09/08 18:09:31;;;;;;;4.65;1.52;;;;;;;18.28;100.00;100664.94;10564476;28;20382;-70
2022/09/08 18:14:47;;;;;;;4.57;1.90;;;;;;;18.13;100.00;100664.72;10565142;28;20028;-70
2022/09/08 18:19:55;;;;;;;3.40;2.57;;;;;;;17.99;100.00;100674.38;10548113;28;20071;-71
2022/09/08 18:25:12;;;;;;;3.42;1.60;;;;;;;17.87;100.00;100677.22;10589873;28;20032;-70
2022/09/08 18:30:19;;;;;;;2.83;2.47;;;;;;;17.80;100.00;100680.13;10550181;28;20130;-71
2022/09/08 18:35:58;;;;;;;2.47;1.75;;;;;;;17.72;100.00;100675.06;10564468;28;20475;-70
2022/09/08 18:41:32;;;;;;;5.75;2.58;;;;;;;17.65;100.00;100688.91;10530765;28;20511;-70
2022/09/08 18:46:55;;;;;;;4.05;2.45;;;;;;;17.61;100.00;100679.53;10582652;28;20035;-71
2022/09/08 18:52:06;;;;;;;5.25;2.28;;;;;;;17.56;100.00;100675.88;10581690;28;20119;-70
2022/09/08 18:57:33;;;;;;;3.10;2.78;;;;;;;17.45;100.00;100663.94;10565623;28;20125;-70
2022/09/08 19:02:37;;;;;;;4.00;3.35;;;;;;;17.31;100.00;100665.34;10583094;28;20055;-70
2022/09/08 19:07:53;;;;;;;5.57;3.58;;;;;;;17.24;100.00;100660.03;10581238;28;20047;-72
2022/09/08 19:12:53;;;;;;;5.55;3.17;;;;;;;17.16;100.00;100665.91;10582535;28;20111;-72
2022/09/08 19:17:55;;;;;;;2.22;2.10;;;;;;;17.11;100.00;100671.31;10581451;28;20119;-71
2022/09/08 19:23:03;;;;;;;3.58;2.75;;;;;;;17.02;100.00;100667.31;10580370;28;20031;-76
2022/09/08 19:28:27;;;;;;;6.70;4.00;;;;;;;16.90;100.00;100687.31;10567414;28;20336;-70
2022/09/08 19:33:34;;;;;;;2.67;2.38;;;;;;;16.87;100.00;100695.19;10587648;28;20038;-70
2022/09/08 19:38:58;;;;;;;2.45;2.05;;;;;;;16.85;100.00;100708.31;10589077;28;20059;-70
2022/09/08 19:44:02;;;;;;;4.05;2.42;;;;;;;16.90;100.00;100711.94;10553335;28;20031;-70
2022/09/08 19:49:03;;;;;;;5.53;2.78;;;;;;;16.94;100.00;100698.59;10568804;28;20035;-70
2022/09/08 19:54:04;;;;;;;3.35;2.42;;;;;;;16.93;100.00;100695.03;10585981;28;20043;-72
2022/09/08 19:59:27;;;;;;;3.40;3.17;;;;;;;16.83;100.00;100705.78;10567933;28;20046;-71
2022/09/08 20:04:37;;;;;;;5.63;3.72;;;;;;;16.72;100.00;100707.47;10587383;28;20108;-71
2022/09/08 20:09:48;;;;;;;3.30;2.63;;;;;;;16.66;100.00;100715.81;10587887;28;20040;-71
2022/09/08 20:15:23;;;;;;;6.43;2.10;;;;;;;16.62;100.00;100720.09;10569587;28;20032;-72
2022/09/08 20:20:29;;;;;;;1.52;1.42;;;;;;;16.51;100.00;100706.22;10571000;28;20039;-72
2022/09/08 20:25:49;;;;;;;15.43;1.90;;;;;;;16.52;100.00;100712.50;10570499;28;20081;-71
2022/09/08 20:30:56;;;;;;;2.10;1.90;;;;;;;16.54;100.00;100717.75;10554529;28;20062;-71
2022/09/08 20:36:22;;;;;;;4.95;2.78;;;;;;;16.50;100.00;100711.94;10586452;28;20111;-71
2022/09/08 20:41:28;;;;;;;2.45;2.20;;;;;;;16.46;100.00;100697.94;10583568;28;20100;-73
2022/09/08 20:46:47;;;;;;;7.30;3.05;;;;;;;16.45;100.00;100703.63;10586749;28;20031;-73
2022/09/08 20:52:00;;;;;;;2.63;2.03;;;;;;;16.44;100.00;100711.00;10585829;28;20081;-70
2022/09/08 20:57:24;;;;;;;4.30;2.60;;;;;;;16.43;100.00;100701.13;10588308;28;20039;-71
2022/09/08 21:02:27;;;;;;;6.72;2.30;;;;;;;16.43;100.00;100700.28;10566960;28;20451;-71
2022/09/08 21:07:36;;;;;;;2.45;2.28;;;;;;;16.47;100.00;100707.78;10583229;28;20114;-71
2022/09/08 21:13:06;;;;;;;3.80;2.33;;;;;;;16.51;100.00;100713.59;10567172;28;20044;-71
2022/09/08 21:18:32;;;;;;;3.17;2.42;;;;;;;16.52;100.00;100712.50;10558554;28;20067;-70
2022/09/08 21:23:33;;;;;;;3.83;3.10;;;;;;;16.56;100.00;100707.38;10566193;28;20031;-70
2022/09/08 21:28:54;;;;;;;9.60;2.83;;;;;;;16.59;100.00;100695.97;10549469;28;20038;-70
2022/09/08 21:34:16;;;;;;;2.35;2.22;;;;;;;16.60;100.00;100690.28;10551401;28;20032;-70
2022/09/08 21:39:20;;;;;;;8.57;2.70;;;;;;;16.57;100.00;100693.50;10568566;28;20121;-70
2022/09/08 21:44:26;;;;;;;3.03;2.38;;;;;;;16.52;100.00;100693.38;10549482;28;20080;-70
2022/09/08 21:49:26;;;;;;;12.65;3.75;;;;;;;16.47;100.00;100691.38;10548900;28;20072;-70
2022/09/08 21:54:31;;;;;;;3.13;2.77;;;;;;;16.46;100.00;100681.53;10582898;28;20047;-70
2022/09/08 21:59:32;;;;;;;10.95;3.58;;;;;;;16.29;100.00;100677.88;10582347;28;20439;-70
2022/09/08 22:04:36;;;;;;;9.35;3.53;;;;;;;16.23;100.00;100676.09;10565265;28;20063;-70
2022/09/08 22:09:47;;;;;;;6.45;2.88;;;;;;;16.26;100.00;100681.91;10566176;28;20371;-70
2022/09/08 22:15:07;;;;;;;5.80;2.83;;;;;;;16.23;100.00;100687.03;10581343;28;20454;-71
2022/09/08 22:20:10;;;;;;;8.80;3.65;;;;;;;16.17;100.00;100687.97;10565303;28;20028;-70
2022/09/08 22:25:12;;;;;;;3.13;2.55;;;;;;;16.12;100.00;100696.09;10582396;28;20435;-70
2022/09/08 22:30:21;;;;;;;6.03;2.88;;;;;;;16.06;100.00;100697.88;10564642;28;20038;-70
2022/09/08 22:35:39;;;;;;;4.68;2.22;;;;;;;16.00;100.00;100696.91;10565509;28;20036;-70
2022/09/08 22:41:16;;;;;;;7.38;2.83;;;;;;;15.92;100.00;100708.22;10582009;28;20367;-70
2022/09/08 22:46:19;;;;;;;5.55;3.45;;;;;;;15.85;100.00;100717.56;10582067;28;20034;-70
2022/09/08 22:51:39;;;;;;;5.13;3.17;;;;;;;15.80;100.00;100718.28;10584521;28;20106;-71
2022/09/08 22:56:49;;;;;;;5.72;3.20;;;;;;;15.82;100.00;100716.13;10565555;28;20123;-70
2022/09/08 23:01:49;;;;;;;9.90;3.17;;;;;;;15.77;100.00;100722.31;10565577;28;20102;-70
2022/09/08 23:06:50;;;;;;;5.53;3.95;;;;;;;15.70;100.00;100709.88;10571709;28;20031;-70
2022/09/08 23:12:26;;;;;;;2.85;2.60;;;;;;;15.67;100.00;100715.78;10571445;28;20489;-70
2022/09/08 23:17:30;;;;;;;5.70;3.17;;;;;;;15.62;100.00;100712.91;10549031;28;20489;-70
2022/09/08 23:22:54;;;;;;;7.90;3.42;;;;;;;15.54;100.00;100701.25;10570465;28;20092;-70
2022/09/08 23:28:00;;;;;;;5.30;3.22;;;;;;;15.49;100.00;100698.41;10557348;28;20059;-70
2022/09/08 23:33:14;;;;;;;5.90;4.47;;;;;;;15.48;100.00;100688.56;10590702;28;20024;-70
2022/09/08 23:38:18;;;;;;;6.50;4.60;;;;;;;15.44;100.00;100692.78;10570616;28;20048;-70
2022/09/08 23:43:31;;;;;;;14.23;4.43;;;;;;;15.50;100.00;100691.84;10587985;28;20059;-70
2022/09/08 23:48:36;;;;;;;5.85;4.82;;;;;;;15.68;100.00;100690.97;10587727;28;20031;-70
2022/09/08 23:53:36;;;;;;;11.18;5.15;;;;;;;15.81;100.00;100673.53;10588059;28;20053;-70
2022/09/08 23:58:37;;;;;;;7.03;4.60;;;;;;;15.87;100.00;100674.47;10569123;28;20104;-70
